메인 페이지
METAR-TAF:

METAR-TAF

공항 :

수쿠르, 파키스탄

위도: 27-43-19N, 경도: 068-47-31E, 고도: 60m

현재 날씨관측

예보는 38분 전, 10:00시(UTC)에 발표되었습니다.
무풍
온도 23°C
습도 47%
기압 1022 hPa
시정: 4000m
연무

METAR: OPSK 151000Z 00000KT 4000 HZ NSC 23/11 Q1022 NOSIG

시각: 15:38 (10:38 UTC)

예보

예보는 7 시간 8분 전, 03:30시(UTC)에 발표되었습니다.
예보 대상 시간: 15일 06시부터 16일 06시까지 (UTC)
8kt
시정: 3000m
연무
15일 1800시부터 (UTC)
여러 방향의 바람 3kt
시정: 2000m
연기
일시적
16일 00시부터 16일 04시까지 (UTC)
시정: 1000m
박무

TAF: OPSK 150330Z 1506/1606 36008KT 3000 HZ NSC FM151800 VRB03KT 2000 FU NSC TEMPO 1600/1604 00000 1000 BR NSC

4,000개 이상의 공항 관측 자료 및 예보 (METAR 및 TAF 보고).

지도상에서 검색 가능한 기상관측소가 노란 점과 빨간 점으로 표시되어 있습니다.

기상관측소 명을 보려면 표시 위로 마우스를 이동하세요.

날씨 관측과 예보를 보려면 클릭하세요.

지도 변경 : 확대하려면 엑스 표시가 있는 녹색 버튼, 축소하려면 빼기 표시가 있는 녹색 버튼, 다음 페이지의 지도를 보려면 녹색 화살표를 클릭하세요.


METAR-TAF: